Flight Track Log - Related Links

Times and Time Zones

All times are in EDT time to prevent confusion due to time zone crossing. See the UAL569 flight status page for this flight to view local times or setup timezone preferences in your user account.


Time Position Orientation Groundspeed Altitude Reporting Facility
EDT Latitude Longitude Course Direction KTS MPH feet Rate Location/Type
Fri 06:22:54 AM 40.7689 -74.1769 304° West 275 316 4,100  Level New York Center
Fri 06:23:00 AM 40.9123 -74.4330 319° Northwest  Level FlightAware Approximate
Fri 06:23:31 AM 40.8000 -74.2333 306° West 277 319 4,000  Level New York TRACON
Fri 06:24:00 AM 40.9914 -74.5235 319° Northwest  Level FlightAware Approximate
Fri 06:24:31 AM 40.8500 -74.3000 315° West 255 293 7,400  Level New York TRACON
Fri 06:25:00 AM 41.0669 -74.6192 316° Northwest  Level FlightAware Approximate
Fri 06:26:00 AM 41.1361 -74.7069 298° West  Level FlightAware Approximate
Fri 06:26:54 AM 40.9725 -74.4703 314° West 311 358 11,700  Level New York Center
Fri 06:27:00 AM 41.1885 -74.8269 304° West  Level FlightAware Approximate
Fri 06:27:55 AM 41.0522 -74.5819 313° West 359 413 13,400  Level New York Center
Fri 06:28:00 AM 41.2402 -74.9471 304° West  Level FlightAware Approximate
Fri 06:28:56 AM 41.1242 -74.6767 315° West 391 450 15,600  Level New York Center
Fri 06:29:53 AM 41.1883 -74.8128 302° West 404 465 18,400 1,983 Climbing New York Center
Fri 06:30:54 AM 41.2383 -74.9289 300° West 409 471 19,500 992 Climbing New York Center
Fri 06:31:54 AM 41.2978 -75.0733 299° West 423 487 20,400 1,150 Climbing New York Center
Fri 06:32:54 AM 41.3633 -75.2186 301° West 444 511 21,800 1,240 Climbing New York Center
Fri 06:33:55 AM 41.4264 -75.3667 300° West 455 524 22,900 1,059 Climbing New York Center
Fri 06:34:53 AM 41.4869 -75.5203 298° West 465 535 23,900 864 Climbing New York Center
Fri 06:35:53 AM 41.5464 -75.6964 294° West 471 542 24,600 1,190 Climbing New York Center
Fri 06:36:54 AM 41.5836 -75.8517 288° West 476 548 26,300 1,339 Climbing New York Center
Fri 06:37:54 AM 41.6283 -76.0189 290° West 476 548 27,300 1,091 Climbing New York Center
Fri 06:38:55 AM 41.6753 -76.1808 291° West 481 554 28,500 1,279 Climbing New York Center
Fri 06:39:56 AM 41.7253 -76.3600 291° West 476 548 29,900 1,322 Climbing New York Center
Fri 06:40:53 AM 41.7661 -76.5053 291° West 476 548 31,100 1,094 Climbing New York Center
Fri 06:43:19 AM 41.8761 -76.9072 290° West 480 552 33,600 1,107 Climbing Cleveland Center
Fri 06:44:19 AM 41.9186 -77.0642 290° West 469 540 34,900 900 Climbing Cleveland Center
Fri 06:45:19 AM 41.9608 -77.2208 290° West 458 527 35,400 550 Climbing Cleveland Center
Fri 06:46:19 AM 42.0050 -77.3836 290° West 458 527 36,000 300 Climbing Cleveland Center
Fri 06:47:19 AM 42.0469 -77.5436 289° West 463 533 36,000  Level Cleveland Center
Fri 06:48:19 AM 42.0886 -77.7039 289° West 458 527 36,000  Level Cleveland Center
Fri 06:49:19 AM 42.1322 -77.8672 290° West 458 527 36,000  Level Cleveland Center
Fri 06:50:19 AM 42.1736 -78.0308 289° West 458 527 36,000  Level Cleveland Center
Fri 06:51:19 AM 42.2164 -78.1889 290° West 458 527 36,000  Level Cleveland Center
Fri 06:52:19 AM 42.2594 -78.3528 290° West 464 534 36,000  Level Cleveland Center
Fri 06:53:19 AM 42.3000 -78.5114 289° West 459 528 36,000  Level Cleveland Center
Fri 06:54:19 AM 42.3403 -78.6731 289° West 459 528 36,000  Level Cleveland Center
Fri 06:55:19 AM 42.3825 -78.8403 289° West 465 535 36,000  Level Cleveland Center
Fri 06:56:19 AM 42.4244 -79.0025 289° West 465 535 36,000  Level Cleveland Center
Fri 06:57:19 AM 42.4661 -79.1647 289° West 459 528 36,000  Level Cleveland Center
Fri 06:58:19 AM 42.4950 -79.3331 283° West 459 528 36,000  Level Cleveland Center
Fri 06:59:19 AM 42.5011 -79.4989 273° West 454 522 36,000  Level Cleveland Center
Fri 07:00:19 AM 42.5108 -79.6678 275° West 449 517 36,000  Level Cleveland Center
Fri 07:01:19 AM 42.5244 -79.8394 276° West 449 517 36,000  Level Cleveland Center
Fri 07:02:19 AM 42.5256 -80.0281 271° West 449 517 36,000  Level Cleveland Center
Fri 07:03:19 AM 42.5325 -80.1944 273° West 455 524 36,000  Level Cleveland Center
Fri 07:04:19 AM 42.5414 -80.3692 274° West 460 529 36,000  Level Cleveland Center
Fri 07:05:19 AM 42.5497 -80.5381 274° West 460 529 36,000  Level Cleveland Center
Fri 07:06:19 AM 42.5561 -80.7072 273° West 460 529 36,000  Level Cleveland Center
Fri 07:07:19 AM 42.5600 -80.8708 272° West 454 522 36,000  Level Cleveland Center
Fri 07:08:19 AM 42.5678 -81.0400 274° West 454 522 36,000  Level Cleveland Center
Fri 07:09:19 AM 42.5711 -81.2006 272° West 440 506 36,000  Level Cleveland Center
Fri 07:10:19 AM 42.5764 -81.3669 273° West 445 512 36,000  Level Cleveland Center
Fri 07:11:19 AM 42.5919 -81.5053 279° West 434 499 36,000  Level Cleveland Center
Fri 07:12:19 AM 42.6197 -81.6667 283° West 434 499 36,000  Level Cleveland Center
Fri 07:13:19 AM 42.6494 -81.8308 284° West 427 491 36,000  Level Cleveland Center
Fri 07:14:19 AM 42.6747 -81.9867 282° West 421 484 36,000  Level Cleveland Center
Fri 07:15:19 AM 42.6956 -82.1397 281° West 416 479 36,000  Level Cleveland Center
Fri 07:16:19 AM 42.7100 -82.2983 277° West 416 479 36,000  Level Cleveland Center
Fri 07:17:19 AM 42.7242 -82.4569 277° West 426 490 36,000  Level Cleveland Center
Fri 07:18:19 AM 42.7383 -82.6158 277° West 426 490 36,000  Level Cleveland Center
Fri 07:19:19 AM 42.7500 -82.7717 276° West 426 490 36,000  Level Cleveland Center
Fri 07:20:19 AM 42.7636 -82.9306 277° West 426 490 36,000  Level Cleveland Center
Fri 07:21:19 AM 42.7747 -83.0922 275° West 426 490 36,000  Level Cleveland Center
Fri 07:22:19 AM 42.7878 -83.2511 276° West 426 490 36,000  Level Cleveland Center
Fri 07:23:19 AM 42.8008 -83.4072 277° West 426 490 36,000 -550 Level Cleveland Center
Fri 07:24:19 AM 42.8114 -83.5664 275° West 426 490 34,900 -1,100 Descending Cleveland Center
Fri 07:25:19 AM 42.8239 -83.7256 276° West 426 490 33,800 -1,000 Descending Cleveland Center
Fri 07:26:19 AM 42.8342 -83.8733 275° West 415 478 32,900 -900 Descending Cleveland Center
Fri 07:27:19 AM 42.8444 -84.0211 275° West 410 472 32,000 -900 Descending Cleveland Center
Fri 07:28:19 AM 42.8547 -84.1661 276° West 403 464 31,100 -950 Descending Cleveland Center
Fri 07:29:19 AM 42.8644 -84.3197 275° West 403 464 30,100 -742 Descending Cleveland Center
Fri 07:29:48 AM 42.8706 -84.3817 278° West 405 466 30,000 -67 Descending Chicago Center
Fri 07:30:49 AM 42.8814 -84.5353 276° West 409 471 30,000  Level Chicago Center
Fri 07:31:51 AM 42.8733 -84.6922 266° West 417 480 30,000  Level Chicago Center
Fri 07:32:53 AM 42.8564 -84.8506 262° West 421 484 30,000  Level Chicago Center
Fri 07:33:54 AM 42.8386 -85.0189 262° West 444 511 30,000 -49 Level Chicago Center
Fri 07:34:56 AM 42.8214 -85.1842 262° West 444 511 29,900 -732 Descending Chicago Center
Fri 07:35:57 AM 42.7992 -85.3831 261° West 444 511 28,500 -1,366 Descending Chicago Center
Fri 07:36:59 AM 42.7772 -85.5508 260° West 446 513 27,100 -1,403 Descending Chicago Center
Fri 07:38:01 AM 42.7469 -85.7147 256° West 447 514 25,600 -1,463 Descending Chicago Center
Fri 07:39:02 AM 42.7181 -85.8739 256° West 435 501 24,100 -1,512 Descending Chicago Center
Fri 07:40:04 AM 42.6897 -86.0292 256° West 424 488 22,500 -1,597 Descending Chicago Center
Fri 07:41:06 AM 42.6619 -86.1836 256° West 421 484 20,800 -1,415 Descending Chicago Center
Fri 07:42:07 AM 42.6336 -86.3319 255° West 409 471 19,600 -1,512 Descending Chicago Center
Fri 07:43:09 AM 42.6067 -86.4736 256° West 392 451 17,700 -1,854 Descending Chicago Center
Fri 07:44:10 AM 42.5800 -86.6158 256° West 388 447 15,800 -1,902 Descending Chicago Center
Fri 07:45:12 AM 42.5536 -86.7597 256° West 392 451 13,800 -1,790 Descending Chicago Center
Fri 07:46:14 AM 42.5103 -86.9161 249° West 374 430 12,100 -1,561 Descending Chicago Center
Fri 07:47:15 AM 42.4753 -87.0444 250° West 365 420 10,600 -1,024 Descending Chicago Center
Fri 07:48:17 AM 42.4383 -87.1697 248° West 362 417 10,000 -293 Descending Chicago Center
Fri 07:49:18 AM 42.4036 -87.2964 250° West 358 412 10,000  Level Chicago Center
Fri 07:50:20 AM 42.3689 -87.4244 250° West 360 414 10,000  Level Chicago Center
Fri 07:51:22 AM 42.3281 -87.5444 245° Southwest 361 415 10,000  Level Chicago Center
Fri 07:52:23 AM 42.2494 -87.6286 218° Southwest 365 420 10,000 -488 Level Chicago Center
Fri 07:53:25 AM 42.1661 -87.7175 218° Southwest 329 379 9,000 -823 Descending Chicago Center
Fri 07:54:27 AM 42.1069 -87.7794 218° Southwest 286 329 8,300 -683 Descending Chicago Center
Fri 07:55:28 AM 42.0919 -87.8503 254° West 220 253 7,600 -795 Descending Chicago Center
Fri 07:55:50 AM 42.1000 -87.8833 288° West 205 236 7,200 -366 Descending Chicago TRACON
Fri 07:56:50 AM 42.1000 -87.9667 270° West 209 241 7,100 -105 Descending Chicago TRACON
Fri 07:57:44 AM 42.1000 -88.0333 270° West 202 232 7,000 -789 Descending Chicago TRACON
Fri 07:58:44 AM 42.0833 -88.1000 251° West 203 234 5,600 -1,351 Descending Chicago TRACON
Fri 07:59:35 AM 42.0903 -88.1678 278° West 200 230 4,500 -1,115 Descending Chicago Center
Fri 08:00:37 AM 42.0594 -88.2175 230° Southwest 205 236 3,500 -732 Descending Chicago Center
Fri 08:01:38 AM 42.0175 -88.2003 163° South 171 197 3,000 -195 Descending Chicago Center
Fri 08:02:40 AM 41.9878 -88.1550 131° Southeast 161 185 3,100 47 Climbing Chicago Center
Fri 08:03:45 AM 41.9833 -88.1000 96° East 138 159 3,100  Level Chicago TRACON

Login

Don't have an account? Register now (free) for customized features, flight alerts, and more!